createdAt,value
2023-09-30T00:00:59.613Z,17.50
2023-09-30T00:03:26.787Z,17.50
2023-09-30T00:05:53.949Z,17.50
2023-09-30T00:08:21.009Z,17.50
2023-09-30T00:10:48.109Z,17.60
2023-09-30T00:13:15.202Z,17.60
2023-09-30T00:15:43.737Z,17.60
2023-09-30T00:18:10.964Z,17.60
2023-09-30T00:20:38.091Z,17.50
2023-09-30T00:23:05.120Z,17.60
2023-09-30T00:25:32.177Z,17.60
2023-09-30T00:27:59.263Z,17.50
2023-09-30T00:30:26.377Z,17.50
2023-09-30T00:32:54.911Z,17.50
2023-09-30T00:35:22.012Z,17.50
2023-09-30T00:37:49.065Z,17.50
2023-09-30T00:40:16.222Z,17.40
2023-09-30T00:42:43.384Z,17.40
2023-09-30T00:45:11.227Z,17.40
2023-09-30T00:47:38.946Z,17.40
2023-09-30T00:50:09.573Z,17.40
2023-09-30T00:52:37.467Z,17.40
2023-09-30T00:55:05.230Z,17.40
2023-09-30T00:57:32.591Z,17.30
2023-09-30T01:00:00.981Z,17.40
2023-09-30T01:02:28.007Z,17.40
2023-09-30T01:04:56.435Z,17.40
2023-09-30T01:07:24.901Z,17.30
2023-09-30T01:09:52.021Z,17.30
2023-09-30T01:12:19.134Z,17.10
2023-09-30T01:14:46.182Z,17.10
2023-09-30T01:17:13.268Z,17.20
2023-09-30T01:19:40.663Z,17.20
2023-09-30T01:22:09.099Z,17.20
2023-09-30T01:24:39.917Z,17.30
2023-09-30T01:27:07.039Z,17.40
2023-09-30T01:29:37.421Z,17.40
2023-09-30T01:32:04.866Z,17.40
2023-09-30T01:34:32.091Z,17.40
2023-09-30T01:36:59.093Z,17.40
2023-09-30T01:39:27.655Z,17.40
2023-09-30T01:41:54.793Z,17.40
2023-09-30T01:44:21.916Z,17.40
2023-09-30T01:46:49.437Z,17.40
2023-09-30T01:49:16.572Z,17.40
2023-09-30T01:51:43.792Z,17.40
2023-09-30T01:54:11.045Z,17.40
2023-09-30T01:56:39.613Z,17.30
2023-09-30T01:59:06.656Z,17.40
2023-09-30T02:01:33.722Z,17.40
2023-09-30T02:04:01.087Z,17.30
2023-09-30T02:06:28.523Z,17.40
2023-09-30T02:08:55.617Z,17.40
2023-09-30T02:11:22.685Z,17.40
2023-09-30T02:13:51.268Z,17.30
2023-09-30T02:16:18.392Z,17.30
2023-09-30T02:18:45.698Z,17.40
2023-09-30T02:21:12.946Z,17.40
2023-09-30T02:23:40.356Z,17.30
2023-09-30T02:26:07.501Z,17.30
2023-09-30T02:28:34.572Z,17.30
2023-09-30T02:31:03.114Z,17.30
2023-09-30T02:33:30.219Z,17.30
2023-09-30T02:35:57.314Z,17.30
2023-09-30T02:38:24.370Z,17.30
2023-09-30T02:40:51.412Z,17.40
2023-09-30T02:43:18.519Z,17.40
2023-09-30T02:45:45.720Z,17.40
2023-09-30T02:48:14.291Z,17.30
2023-09-30T02:50:43.588Z,17.30
2023-09-30T02:53:10.652Z,17.30
2023-09-30T02:55:37.836Z,17.30
2023-09-30T02:58:04.925Z,17.30
2023-09-30T03:00:32.218Z,17.30
2023-09-30T03:03:00.909Z,17.30
2023-09-30T03:05:30.005Z,17.30
2023-09-30T03:07:57.024Z,17.20
2023-09-30T03:10:24.211Z,17.30
2023-09-30T03:12:54.102Z,17.20
2023-09-30T03:15:21.525Z,17.20
2023-09-30T03:17:51.846Z,17.20
2023-09-30T03:20:20.895Z,17.20
2023-09-30T03:22:49.592Z,17.20
2023-09-30T03:25:17.863Z,17.20
2023-09-30T03:27:45.272Z,17.20
2023-09-30T03:30:13.793Z,17.20
2023-09-30T03:32:40.978Z,17.20
2023-09-30T03:35:09.258Z,17.20
2023-09-30T03:37:36.397Z,17.20
2023-09-30T03:40:05.578Z,17.20
2023-09-30T03:42:32.980Z,17.20
2023-09-30T03:45:00.139Z,17.20
2023-09-30T03:47:27.212Z,17.20
2023-09-30T03:49:54.601Z,17.20
2023-09-30T03:52:21.697Z,17.20
2023-09-30T03:54:48.853Z,17.20
2023-09-30T03:57:17.350Z,17.20
2023-09-30T03:59:44.687Z,17.20
2023-09-30T04:02:11.766Z,17.20
2023-09-30T04:04:38.911Z,17.10
2023-09-30T04:07:06.015Z,17.10
2023-09-30T04:09:33.618Z,17.10
2023-09-30T04:12:00.683Z,17.10
2023-09-30T04:14:29.115Z,17.10
2023-09-30T04:16:56.248Z,17.10
2023-09-30T04:19:23.336Z,17.10
2023-09-30T04:21:50.483Z,17.00
2023-09-30T04:24:17.572Z,17.00
2023-09-30T04:26:44.686Z,17.00
2023-09-30T04:29:11.727Z,17.00
2023-09-30T04:31:40.235Z,17.00
2023-09-30T04:34:07.493Z,16.90
2023-09-30T04:36:34.658Z,17.00
2023-09-30T04:39:01.766Z,17.00
2023-09-30T04:41:28.809Z,16.90
2023-09-30T04:43:56.041Z,16.90
2023-09-30T04:46:23.331Z,16.90
2023-09-30T04:48:52.263Z,17.00
2023-09-30T04:51:19.628Z,16.90
2023-09-30T04:53:47.426Z,17.00
2023-09-30T04:56:14.771Z,17.00
2023-09-30T04:58:41.817Z,17.00
2023-09-30T05:01:09.072Z,16.90
2023-09-30T05:03:36.446Z,16.90
2023-09-30T05:06:05.157Z,16.90
2023-09-30T05:08:32.302Z,16.90
2023-09-30T05:10:59.419Z,16.90
2023-09-30T05:13:26.527Z,16.90
2023-09-30T05:15:54.251Z,17.00
2023-09-30T05:18:21.795Z,16.90
2023-09-30T05:20:48.994Z,17.00
2023-09-30T05:23:23.414Z,17.00
2023-09-30T05:25:54.378Z,17.00
2023-09-30T05:28:36.457Z,17.00
2023-09-30T05:31:03.525Z,17.00
2023-09-30T05:33:30.679Z,17.00
2023-09-30T05:35:58.149Z,17.00
2023-09-30T05:38:26.569Z,17.00
2023-09-30T05:40:54.058Z,17.00
2023-09-30T05:43:21.115Z,17.00
2023-09-30T05:45:48.219Z,17.00
2023-09-30T05:54:27.845Z,17.00
2023-09-30T05:57:09.887Z,17.00
2023-09-30T06:00:02.142Z,17.00
2023-09-30T06:02:29.243Z,17.00
2023-09-30T06:04:56.461Z,17.00
2023-09-30T06:07:31.134Z,17.00
2023-09-30T06:10:02.114Z,17.10
2023-09-30T06:12:29.189Z,17.10
2023-09-30T06:14:56.344Z,17.10
2023-09-30T06:17:23.430Z,17.10
2023-09-30T06:19:50.595Z,17.10
2023-09-30T06:22:17.662Z,17.00
2023-09-30T06:24:44.759Z,17.00
2023-09-30T06:27:13.230Z,17.10
2023-09-30T06:29:41.908Z,17.10
2023-09-30T06:32:09.091Z,17.20
2023-09-30T06:34:36.162Z,17.20
2023-09-30T06:37:03.262Z,17.20
2023-09-30T06:39:30.369Z,17.30
2023-09-30T06:41:57.583Z,17.30
2023-09-30T06:44:26.117Z,17.30
2023-09-30T06:46:54.945Z,17.20
2023-09-30T06:49:28.172Z,17.30
2023-09-30T06:51:55.254Z,17.30
2023-09-30T06:54:22.471Z,17.40
2023-09-30T06:56:49.664Z,17.40
2023-09-30T06:59:16.821Z,17.40
2023-09-30T07:01:45.230Z,17.40
2023-09-30T07:04:12.460Z,17.30
2023-09-30T07:06:39.812Z,17.40
2023-09-30T07:09:06.925Z,17.50
2023-09-30T07:11:34.296Z,17.50
2023-09-30T07:14:02.145Z,17.60
2023-09-30T07:16:29.430Z,17.70
2023-09-30T07:18:58.076Z,17.70
2023-09-30T07:21:25.363Z,17.80
2023-09-30T07:23:52.522Z,17.80
2023-09-30T07:26:23.991Z,17.80
2023-09-30T07:28:51.040Z,17.90
2023-09-30T07:31:18.211Z,17.90
2023-09-30T07:33:45.400Z,17.90
2023-09-30T07:36:15.198Z,18.00
2023-09-30T07:38:42.223Z,18.10
2023-09-30T07:41:11.702Z,18.20
2023-09-30T07:43:38.969Z,18.20
2023-09-30T07:46:07.455Z,18.20
2023-09-30T07:48:37.098Z,18.30
2023-09-30T07:51:04.340Z,18.30
2023-09-30T07:53:32.955Z,18.30
2023-09-30T07:56:00.044Z,18.30
2023-09-30T07:58:27.220Z,18.20
2023-09-30T08:00:54.414Z,18.20
2023-09-30T08:03:21.548Z,18.30
2023-09-30T08:05:48.588Z,18.40
2023-09-30T08:08:15.682Z,18.40
2023-09-30T08:10:45.301Z,18.50
2023-09-30T08:13:12.318Z,18.60
2023-09-30T08:15:39.374Z,18.70
2023-09-30T08:18:06.594Z,18.90
2023-09-30T08:20:33.827Z,19.10
2023-09-30T08:23:01.084Z,19.00
2023-09-30T08:25:28.165Z,18.90
2023-09-30T08:27:56.776Z,18.90
2023-09-30T08:30:24.189Z,18.90
2023-09-30T08:32:51.490Z,18.90
2023-09-30T08:35:18.783Z,18.90
2023-09-30T08:37:45.903Z,18.90
2023-09-30T08:40:13.131Z,18.80
2023-09-30T08:42:40.447Z,18.90
2023-09-30T08:45:13.491Z,18.90
2023-09-30T08:47:41.912Z,19.10
2023-09-30T08:50:09.957Z,19.10
2023-09-30T08:52:40.840Z,19.10
2023-09-30T08:55:09.642Z,19.10
2023-09-30T08:57:39.044Z,19.20
2023-09-30T09:00:10.243Z,19.20
2023-09-30T09:02:37.327Z,19.20
2023-09-30T09:05:07.206Z,19.40
2023-09-30T09:07:34.360Z,19.40
2023-09-30T09:10:09.200Z,19.50
2023-09-30T09:12:38.004Z,19.50
2023-09-30T09:15:07.389Z,19.60
2023-09-30T09:17:45.870Z,19.60
2023-09-30T09:20:18.559Z,19.80
2023-09-30T09:22:45.990Z,19.60
2023-09-30T09:25:13.131Z,19.70
2023-09-30T09:27:40.520Z,19.70
2023-09-30T09:30:21.184Z,19.80
2023-09-30T09:33:03.263Z,19.80
2023-09-30T09:35:30.902Z,19.60
2023-09-30T09:38:01.583Z,19.50
2023-09-30T09:40:29.745Z,19.50
2023-09-30T09:42:57.795Z,19.50
2023-09-30T09:45:26.407Z,19.80
2023-09-30T09:47:54.822Z,19.40
2023-09-30T09:50:24.038Z,19.50
2023-09-30T09:52:52.650Z,19.70
2023-09-30T09:55:21.238Z,19.80
2023-09-30T09:57:49.015Z,20.00
2023-09-30T10:00:18.910Z,20.40
2023-09-30T10:02:46.402Z,20.90
2023-09-30T10:05:14.152Z,21.10
2023-09-30T10:07:46.776Z,21.30
2023-09-30T10:10:17.004Z,21.40
2023-09-30T10:12:44.340Z,21.60
2023-09-30T10:15:38.961Z,21.70
2023-09-30T10:18:08.181Z,21.90
2023-09-30T10:20:38.539Z,21.90
2023-09-30T10:23:25.093Z,21.80
2023-09-30T10:25:55.076Z,21.90
2023-09-30T10:28:38.939Z,22.10
2023-09-30T10:31:14.056Z,22.20
2023-09-30T10:34:19.390Z,22.10
2023-09-30T10:36:47.229Z,22.10
2023-09-30T10:39:16.082Z,22.00
2023-09-30T10:41:53.023Z,22.10
2023-09-30T10:44:36.828Z,22.10
2023-09-30T10:47:37.198Z,22.20
2023-09-30T10:50:25.002Z,22.30
2023-09-30T10:52:54.603Z,22.30
2023-09-30T10:55:23.200Z,22.50
2023-09-30T10:57:52.236Z,22.80
2023-09-30T11:00:20.275Z,22.90
2023-09-30T11:02:51.490Z,23.00
2023-09-30T11:05:19.241Z,23.00
2023-09-30T11:07:49.283Z,23.10
2023-09-30T11:10:18.260Z,23.10
2023-09-30T11:12:56.967Z,23.00
2023-09-30T11:15:24.303Z,23.60
2023-09-30T11:17:52.873Z,23.90
2023-09-30T11:20:20.477Z,23.90
2023-09-30T11:22:48.471Z,24.20
2023-09-30T11:25:19.127Z,24.20
2023-09-30T11:27:46.881Z,24.00
2023-09-30T11:30:15.760Z,24.10
2023-09-30T11:32:42.880Z,24.20
2023-09-30T11:35:10.865Z,24.40
2023-09-30T11:37:37.912Z,24.70
2023-09-30T11:40:13.021Z,24.70
2023-09-30T11:42:40.329Z,24.60
2023-09-30T11:45:21.443Z,24.80
2023-09-30T11:47:48.565Z,24.90
2023-09-30T11:50:15.934Z,25.00
2023-09-30T11:52:46.182Z,25.20
2023-09-30T11:55:15.294Z,25.00
2023-09-30T11:57:42.484Z,24.90
2023-09-30T12:00:13.632Z,25.20
2023-09-30T12:02:44.526Z,24.90
2023-09-30T12:05:11.987Z,25.30
2023-09-30T12:07:39.427Z,24.90
2023-09-30T12:10:11.242Z,25.30
2023-09-30T12:12:38.383Z,25.40
2023-09-30T12:15:06.778Z,25.40
2023-09-30T12:17:33.896Z,25.60
2023-09-30T12:20:02.396Z,25.60
2023-09-30T12:22:29.494Z,25.70
2023-09-30T12:24:56.617Z,25.60
2023-09-30T12:27:23.719Z,25.50
2023-09-30T12:29:50.920Z,25.30
2023-09-30T12:32:18.109Z,25.60
2023-09-30T12:34:45.383Z,25.60
2023-09-30T12:37:13.857Z,25.40
2023-09-30T12:39:41.325Z,25.80
2023-09-30T12:42:08.510Z,26.00
2023-09-30T12:44:35.584Z,25.90
2023-09-30T12:47:02.854Z,25.30
2023-09-30T12:49:29.979Z,25.40
2023-09-30T12:51:57.195Z,25.40
2023-09-30T12:54:25.753Z,25.80
2023-09-30T12:56:52.946Z,25.70
2023-09-30T12:59:20.052Z,25.70
2023-09-30T13:01:47.482Z,25.80
2023-09-30T13:04:14.736Z,25.90
2023-09-30T13:06:41.993Z,26.10
2023-09-30T13:09:09.152Z,26.30
2023-09-30T13:11:38.090Z,26.30
2023-09-30T13:14:05.743Z,26.50
2023-09-30T13:16:33.146Z,26.40
2023-09-30T13:19:00.925Z,26.30
2023-09-30T13:21:28.587Z,26.40
2023-09-30T13:23:55.787Z,26.50
2023-09-30T13:26:22.916Z,26.40
2023-09-30T13:28:51.371Z,26.60
2023-09-30T13:31:18.495Z,26.40
2023-09-30T13:33:45.685Z,26.50
2023-09-30T13:36:13.077Z,26.70
2023-09-30T13:38:40.135Z,26.90
2023-09-30T13:41:07.206Z,27.20
2023-09-30T13:43:34.262Z,27.20
2023-09-30T13:46:05.933Z,27.20
2023-09-30T13:48:33.033Z,27.30
2023-09-30T13:51:05.598Z,27.90
2023-09-30T13:53:32.628Z,28.40
2023-09-30T13:55:59.778Z,28.60
2023-09-30T13:58:26.971Z,28.40
2023-09-30T14:00:54.089Z,29.00
2023-09-30T14:03:22.920Z,29.30
2023-09-30T14:05:50.158Z,28.10
2023-09-30T14:08:17.255Z,27.00
2023-09-30T14:10:44.522Z,26.40
2023-09-30T14:13:11.795Z,26.00
2023-09-30T14:15:39.028Z,25.50
2023-09-30T14:18:06.248Z,24.90
2023-09-30T14:20:34.702Z,24.70
2023-09-30T14:23:01.765Z,24.40
2023-09-30T14:25:28.892Z,24.60
2023-09-30T14:27:56.227Z,24.30
2023-09-30T14:30:23.326Z,24.20
2023-09-30T14:32:50.365Z,24.00
2023-09-30T14:35:18.129Z,23.90
2023-09-30T14:37:46.885Z,24.00
2023-09-30T14:40:14.094Z,23.90
2023-09-30T14:42:41.412Z,23.90
2023-09-30T14:45:09.542Z,23.60
2023-09-30T14:47:36.599Z,23.40
2023-09-30T14:50:04.100Z,23.40
2023-09-30T14:55:32.710Z,23.20
2023-09-30T14:57:59.850Z,22.80
2023-09-30T15:00:27.062Z,22.80
2023-09-30T15:02:54.130Z,22.60
2023-09-30T15:05:21.256Z,22.60
2023-09-30T15:07:48.398Z,22.70
2023-09-30T15:10:15.688Z,22.50
2023-09-30T15:12:44.184Z,22.40
2023-09-30T15:15:11.603Z,22.20
2023-09-30T15:17:38.759Z,22.20
2023-09-30T15:20:07.117Z,22.30
2023-09-30T15:22:34.221Z,22.40
2023-09-30T15:25:01.396Z,22.30
2023-09-30T15:27:28.537Z,22.30
2023-09-30T15:29:56.969Z,22.40
2023-09-30T15:32:24.036Z,22.50
2023-09-30T15:34:51.162Z,22.30
2023-09-30T15:37:18.304Z,22.10
2023-09-30T15:39:45.757Z,22.20
2023-09-30T15:42:12.886Z,22.00
2023-09-30T15:44:40.574Z,21.90
2023-09-30T15:47:10.049Z,22.00
2023-09-30T15:49:37.124Z,21.60
2023-09-30T15:52:04.811Z,21.70
2023-09-30T15:54:32.082Z,21.50
2023-09-30T15:56:59.293Z,21.30
2023-09-30T15:59:26.405Z,21.50
2023-09-30T16:01:53.552Z,21.50
2023-09-30T16:04:22.236Z,21.40
2023-09-30T16:06:49.438Z,21.40
2023-09-30T16:09:16.542Z,21.40
2023-09-30T16:11:43.790Z,21.40
2023-09-30T16:14:10.969Z,21.40
2023-09-30T16:16:38.094Z,21.40
2023-09-30T16:19:05.418Z,21.20
2023-09-30T16:21:34.101Z,21.30
2023-09-30T16:24:01.230Z,21.20
2023-09-30T16:26:28.363Z,20.90
2023-09-30T16:28:55.441Z,21.00
2023-09-30T16:31:22.666Z,20.90
2023-09-30T16:33:49.805Z,21.00
2023-09-30T16:36:16.896Z,20.90
2023-09-30T16:38:45.384Z,20.90
2023-09-30T16:41:12.497Z,21.00
2023-09-30T16:43:39.781Z,20.90
2023-09-30T16:46:07.084Z,20.90
2023-09-30T16:48:34.202Z,20.90
2023-09-30T16:51:01.309Z,20.90
2023-09-30T16:53:28.329Z,20.80
2023-09-30T16:55:56.759Z,20.60
2023-09-30T16:58:23.832Z,20.60
2023-09-30T17:00:50.921Z,20.60
2023-09-30T17:03:17.981Z,20.60
2023-09-30T17:05:45.128Z,20.70
2023-09-30T17:08:12.256Z,20.60
2023-09-30T17:10:39.335Z,20.60
2023-09-30T17:13:07.749Z,20.50
2023-09-30T17:15:35.066Z,20.50
2023-09-30T17:18:02.315Z,20.60
2023-09-30T17:20:29.473Z,20.60
2023-09-30T17:22:56.564Z,20.60
2023-09-30T17:25:23.700Z,20.60
2023-09-30T17:27:50.833Z,20.60
2023-09-30T17:30:34.167Z,20.60
2023-09-30T17:33:06.152Z,20.50
2023-09-30T17:35:39.844Z,20.40
2023-09-30T17:38:07.077Z,20.40
2023-09-30T17:40:34.146Z,20.40
2023-09-30T17:43:01.202Z,20.30
2023-09-30T17:45:29.708Z,20.20
2023-09-30T17:47:56.993Z,20.20
2023-09-30T17:50:24.110Z,20.20
2023-09-30T17:52:51.858Z,20.20
2023-09-30T17:55:19.008Z,20.00
2023-09-30T17:57:46.152Z,20.10
2023-09-30T18:00:14.445Z,20.10
2023-09-30T18:02:42.910Z,20.00
2023-09-30T18:05:10.459Z,20.00
2023-09-30T18:07:45.707Z,20.00
2023-09-30T18:10:12.936Z,20.00
2023-09-30T18:12:40.056Z,19.80
2023-09-30T18:15:08.524Z,19.90
2023-09-30T18:17:36.101Z,19.90
2023-09-30T18:20:05.812Z,19.90
2023-09-30T18:22:33.052Z,20.00
2023-09-30T18:25:00.289Z,20.00
2023-09-30T18:27:27.397Z,19.90
2023-09-30T18:29:54.545Z,20.00
2023-09-30T18:32:21.619Z,19.80
2023-09-30T18:34:48.737Z,19.80
2023-09-30T18:37:17.502Z,19.70
2023-09-30T18:39:53.716Z,19.70
2023-09-30T18:42:22.277Z,19.80
2023-09-30T18:44:49.360Z,19.80
2023-09-30T18:47:16.427Z,19.80
2023-09-30T18:49:43.530Z,19.80
2023-09-30T18:52:10.912Z,19.70
2023-09-30T18:54:39.605Z,19.70
2023-09-30T18:57:06.764Z,19.70
2023-09-30T18:59:33.865Z,19.70
2023-09-30T19:02:00.896Z,19.70
2023-09-30T19:04:28.132Z,19.80
2023-09-30T19:06:55.314Z,19.80
2023-09-30T19:09:22.512Z,19.80
2023-09-30T19:11:50.969Z,19.80
2023-09-30T19:14:18.059Z,19.70
2023-09-30T19:16:45.263Z,19.70
2023-09-30T19:19:12.570Z,19.70
2023-09-30T19:21:39.891Z,19.70
2023-09-30T19:24:07.217Z,19.70
2023-09-30T19:26:34.417Z,19.70
2023-09-30T19:29:02.959Z,19.70
2023-09-30T19:31:30.179Z,19.70
2023-09-30T19:33:57.665Z,19.60
2023-09-30T19:36:24.915Z,19.60
2023-09-30T19:38:51.943Z,19.60
2023-09-30T19:41:19.653Z,19.60
2023-09-30T19:43:46.674Z,19.50
2023-09-30T19:46:15.190Z,19.50
2023-09-30T19:48:42.624Z,19.40
2023-09-30T19:51:09.773Z,19.40
2023-09-30T19:53:37.018Z,19.30
2023-09-30T19:56:04.971Z,19.30
2023-09-30T19:58:32.494Z,19.30
2023-09-30T20:00:59.741Z,19.30
2023-09-30T20:03:28.231Z,19.20
2023-09-30T20:05:55.340Z,19.20
2023-09-30T20:08:22.381Z,19.10
2023-09-30T20:10:49.482Z,19.10
2023-09-30T20:13:16.655Z,19.00
2023-09-30T20:15:44.020Z,19.00
2023-09-30T20:18:12.968Z,19.00
2023-09-30T20:20:41.449Z,19.00
2023-09-30T20:23:08.484Z,18.90
2023-09-30T20:25:35.514Z,18.90
2023-09-30T20:28:02.826Z,18.80
2023-09-30T20:30:30.129Z,18.80
2023-09-30T20:32:57.336Z,18.80
2023-09-30T20:35:24.537Z,18.70
2023-09-30T20:37:53.035Z,18.70
2023-09-30T20:40:20.166Z,18.60
2023-09-30T20:42:47.291Z,18.60
2023-09-30T20:45:14.436Z,18.50
2023-09-30T20:47:41.561Z,18.50
2023-09-30T20:50:08.895Z,18.50
2023-09-30T20:52:36.138Z,18.50
2023-09-30T20:55:05.115Z,18.50
2023-09-30T20:57:32.725Z,18.40
2023-09-30T20:59:59.802Z,18.40
2023-09-30T21:02:27.146Z,18.30
2023-09-30T21:04:55.350Z,18.30
2023-09-30T21:07:22.392Z,18.40
2023-09-30T21:09:49.456Z,18.40
2023-09-30T21:12:17.930Z,18.30
2023-09-30T21:14:44.978Z,18.30
2023-09-30T21:17:12.089Z,18.30
2023-09-30T21:19:39.187Z,18.30
2023-09-30T21:22:06.327Z,18.30
2023-09-30T21:24:33.530Z,18.30
2023-09-30T21:27:00.581Z,18.20
2023-09-30T21:29:29.071Z,18.30
2023-09-30T21:31:56.830Z,18.20
2023-09-30T21:34:24.064Z,18.20
2023-09-30T21:36:51.235Z,18.10
2023-09-30T21:39:18.365Z,18.10
2023-09-30T21:41:45.409Z,18.10
2023-09-30T21:44:12.439Z,18.10
2023-09-30T21:46:40.979Z,18.10
2023-09-30T21:49:08.930Z,18.10
2023-09-30T21:51:35.951Z,18.10
2023-09-30T21:54:02.979Z,18.10
2023-09-30T21:56:30.056Z,18.00
2023-09-30T21:58:57.219Z,18.00
2023-09-30T22:01:24.546Z,17.90
2023-09-30T22:03:53.266Z,17.90
2023-09-30T22:06:20.477Z,17.80
2023-09-30T22:08:47.544Z,17.80
2023-09-30T22:11:14.564Z,17.70
2023-09-30T22:13:41.706Z,17.70
2023-09-30T22:16:08.817Z,17.60
2023-09-30T22:18:35.999Z,17.60
2023-09-30T22:21:04.691Z,17.50
2023-09-30T22:23:31.877Z,17.40
2023-09-30T22:25:58.934Z,17.50
2023-09-30T22:28:26.058Z,17.40
2023-09-30T22:30:53.173Z,17.30
2023-09-30T22:33:20.265Z,17.40
2023-09-30T22:35:47.345Z,17.40
2023-09-30T22:38:16.087Z,17.40
2023-09-30T22:40:43.169Z,17.30
2023-09-30T22:43:10.434Z,17.30
2023-09-30T22:45:37.569Z,17.30
2023-09-30T22:48:05.813Z,17.20
2023-09-30T22:50:33.627Z,17.20
2023-09-30T22:53:01.741Z,17.20
2023-09-30T22:55:30.279Z,17.10
2023-09-30T22:57:57.528Z,17.10
2023-09-30T23:00:24.904Z,17.10
2023-09-30T23:02:51.992Z,17.00
2023-09-30T23:05:19.320Z,16.90
2023-09-30T23:07:47.324Z,16.80
2023-09-30T23:10:16.099Z,16.90
2023-09-30T23:12:44.762Z,16.90
2023-09-30T23:15:13.904Z,16.80
2023-09-30T23:17:44.508Z,16.80
2023-09-30T23:20:14.315Z,16.80
2023-09-30T23:22:41.827Z,16.70
2023-09-30T23:25:09.807Z,16.70
2023-09-30T23:27:36.974Z,16.70
2023-09-30T23:30:06.930Z,16.60
2023-09-30T23:32:34.012Z,16.60
2023-09-30T23:35:01.056Z,16.50
2023-09-30T23:37:28.156Z,16.50
2023-09-30T23:39:55.275Z,16.50
2023-09-30T23:42:22.462Z,16.50
2023-09-30T23:44:49.565Z,16.40
2023-09-30T23:47:18.087Z,16.50
2023-09-30T23:49:45.335Z,16.50
2023-09-30T23:52:12.492Z,16.50
2023-09-30T23:54:39.605Z,16.50
2023-09-30T23:57:06.663Z,16.60
2023-09-30T23:59:33.724Z,16.50
